sensor_id;sensor_type;location;lat;lon;timestamp;P1;durP1;ratioP1;P2;durP2;ratioP2
1467;SDS011;727;48.892;9.544;2022-09-13T00:02:00;4.30;;;4.00;;
1467;SDS011;727;48.892;9.544;2022-09-13T00:04:26;5.30;;;4.80;;
1467;SDS011;727;48.892;9.544;2022-09-13T00:06:53;5.10;;;4.60;;
1467;SDS011;727;48.892;9.544;2022-09-13T00:09:21;4.27;;;3.90;;
1467;SDS011;727;48.892;9.544;2022-09-13T00:11:48;6.60;;;4.60;;
1467;SDS011;727;48.892;9.544;2022-09-13T00:14:14;6.23;;;4.83;;
1467;SDS011;727;48.892;9.544;2022-09-13T00:16:41;5.10;;;4.70;;
1467;SDS011;727;48.892;9.544;2022-09-13T00:19:08;7.20;;;4.40;;
1467;SDS011;727;48.892;9.544;2022-09-13T00:21:34;5.70;;;5.10;;
1467;SDS011;727;48.892;9.544;2022-09-13T00:24:01;5.20;;;4.70;;
1467;SDS011;727;48.892;9.544;2022-09-13T00:26:29;6.63;;;4.93;;
1467;SDS011;727;48.892;9.544;2022-09-13T00:28:56;8.13;;;4.90;;
1467;SDS011;727;48.892;9.544;2022-09-13T00:31:25;5.30;;;4.80;;
1467;SDS011;727;48.892;9.544;2022-09-13T00:33:52;5.03;;;4.53;;
1467;SDS011;727;48.892;9.544;2022-09-13T00:36:19;6.90;;;5.10;;
1467;SDS011;727;48.892;9.544;2022-09-13T00:38:46;5.00;;;4.50;;
1467;SDS011;727;48.892;9.544;2022-09-13T00:41:13;5.70;;;5.20;;
1467;SDS011;727;48.892;9.544;2022-09-13T00:43:44;9.17;;;4.83;;
1467;SDS011;727;48.892;9.544;2022-09-13T00:46:15;7.77;;;5.60;;
1467;SDS011;727;48.892;9.544;2022-09-13T00:48:45;5.30;;;4.80;;
1467;SDS011;727;48.892;9.544;2022-09-13T00:51:14;5.50;;;5.10;;
1467;SDS011;727;48.892;9.544;2022-09-13T00:53:42;5.23;;;4.80;;
1467;SDS011;727;48.892;9.544;2022-09-13T00:56:13;5.60;;;4.10;;
1467;SDS011;727;48.892;9.544;2022-09-13T00:58:45;6.10;;;4.60;;
1467;SDS011;727;48.892;9.544;2022-09-13T01:01:16;5.50;;;5.00;;
1467;SDS011;727;48.892;9.544;2022-09-13T01:03:45;7.53;;;4.33;;
1467;SDS011;727;48.892;9.544;2022-09-13T01:06:14;5.27;;;4.77;;
1467;SDS011;727;48.892;9.544;2022-09-13T01:08:44;8.00;;;5.00;;
1467;SDS011;727;48.892;9.544;2022-09-13T01:11:15;4.50;;;4.10;;
1467;SDS011;727;48.892;9.544;2022-09-13T01:13:47;7.20;;;4.80;;
1467;SDS011;727;48.892;9.544;2022-09-13T01:16:15;5.20;;;4.80;;
1467;SDS011;727;48.892;9.544;2022-09-13T01:18:41;5.70;;;5.20;;
1467;SDS011;727;48.892;9.544;2022-09-13T01:24:25;5.27;;;4.77;;
1467;SDS011;727;48.892;9.544;2022-09-13T01:27:17;4.77;;;4.30;;
1467;SDS011;727;48.892;9.544;2022-09-13T01:30:04;4.73;;;4.33;;
1467;SDS011;727;48.892;9.544;2022-09-13T01:32:33;5.30;;;4.90;;
1467;SDS011;727;48.892;9.544;2022-09-13T01:35:14;6.47;;;4.43;;
1467;SDS011;727;48.892;9.544;2022-09-13T01:37:51;4.87;;;4.47;;
1467;SDS011;727;48.892;9.544;2022-09-13T01:40:28;5.03;;;4.63;;
1467;SDS011;727;48.892;9.544;2022-09-13T01:43:10;4.70;;;4.30;;
1467;SDS011;727;48.892;9.544;2022-09-13T01:45:52;6.38;;;5.70;;
1467;SDS011;727;48.892;9.544;2022-09-13T01:48:29;5.87;;;5.33;;
1467;SDS011;727;48.892;9.544;2022-09-13T01:51:05;4.77;;;4.37;;
1467;SDS011;727;48.892;9.544;2022-09-13T01:53:38;4.47;;;4.07;;
1467;SDS011;727;48.892;9.544;2022-09-13T01:56:16;5.50;;;5.00;;
1467;SDS011;727;48.892;9.544;2022-09-13T01:58:49;5.70;;;4.60;;
1467;SDS011;727;48.892;9.544;2022-09-13T02:01:22;7.60;;;4.47;;
1467;SDS011;727;48.892;9.544;2022-09-13T02:03:53;7.60;;;5.00;;
1467;SDS011;727;48.892;9.544;2022-09-13T02:06:25;6.00;;;5.10;;
1467;SDS011;727;48.892;9.544;2022-09-13T02:08:56;5.47;;;5.00;;
1467;SDS011;727;48.892;9.544;2022-09-13T02:11:26;4.83;;;4.33;;
1467;SDS011;727;48.892;9.544;2022-09-13T02:13:54;4.47;;;4.17;;
1467;SDS011;727;48.892;9.544;2022-09-13T02:16:27;6.00;;;4.20;;
1467;SDS011;727;48.892;9.544;2022-09-13T02:18:57;4.63;;;4.23;;
1467;SDS011;727;48.892;9.544;2022-09-13T02:21:27;6.40;;;5.03;;
1467;SDS011;727;48.892;9.544;2022-09-13T02:23:59;5.40;;;5.00;;
1467;SDS011;727;48.892;9.544;2022-09-13T02:26:28;5.50;;;5.00;;
1467;SDS011;727;48.892;9.544;2022-09-13T02:28:57;5.47;;;4.97;;
1467;SDS011;727;48.892;9.544;2022-09-13T02:31:31;5.53;;;4.97;;
1467;SDS011;727;48.892;9.544;2022-09-13T02:34:02;5.10;;;4.70;;
1467;SDS011;727;48.892;9.544;2022-09-13T02:36:34;4.73;;;4.33;;
1467;SDS011;727;48.892;9.544;2022-09-13T02:39:06;5.83;;;5.20;;
1467;SDS011;727;48.892;9.544;2022-09-13T02:41:38;6.13;;;5.53;;
1467;SDS011;727;48.892;9.544;2022-09-13T02:44:12;6.80;;;4.87;;
1467;SDS011;727;48.892;9.544;2022-09-13T02:46:54;5.30;;;4.40;;
1467;SDS011;727;48.892;9.544;2022-09-13T02:49:31;5.37;;;4.80;;
1467;SDS011;727;48.892;9.544;2022-09-13T02:52:08;6.20;;;5.20;;
1467;SDS011;727;48.892;9.544;2022-09-13T02:54:42;5.37;;;4.93;;
1467;SDS011;727;48.892;9.544;2022-09-13T02:57:17;5.40;;;5.00;;
1467;SDS011;727;48.892;9.544;2022-09-13T02:59:47;6.00;;;5.40;;
1467;SDS011;727;48.892;9.544;2022-09-13T03:02:17;5.63;;;5.17;;
1467;SDS011;727;48.892;9.544;2022-09-13T03:04:49;6.57;;;5.10;;
1467;SDS011;727;48.892;9.544;2022-09-13T03:07:16;8.00;;;5.10;;
1467;SDS011;727;48.892;9.544;2022-09-13T03:09:45;5.90;;;5.30;;
1467;SDS011;727;48.892;9.544;2022-09-13T03:15:09;6.10;;;5.23;;
1467;SDS011;727;48.892;9.544;2022-09-13T03:17:48;6.63;;;5.87;;
1467;SDS011;727;48.892;9.544;2022-09-13T03:20:28;5.53;;;5.03;;
1467;SDS011;727;48.892;9.544;2022-09-13T03:26:21;5.90;;;5.17;;
1467;SDS011;727;48.892;9.544;2022-09-13T03:28:53;6.43;;;5.00;;
1467;SDS011;727;48.892;9.544;2022-09-13T03:31:31;5.50;;;5.00;;
1467;SDS011;727;48.892;9.544;2022-09-13T03:34:05;5.20;;;4.70;;
1467;SDS011;727;48.892;9.544;2022-09-13T03:36:36;4.93;;;4.53;;
1467;SDS011;727;48.892;9.544;2022-09-13T03:39:11;5.53;;;5.03;;
1467;SDS011;727;48.892;9.544;2022-09-13T03:41:44;5.90;;;5.30;;
1467;SDS011;727;48.892;9.544;2022-09-13T03:44:15;5.50;;;5.00;;
1467;SDS011;727;48.892;9.544;2022-09-13T03:46:47;14.87;;;5.10;;
1467;SDS011;727;48.892;9.544;2022-09-13T03:49:19;5.30;;;4.80;;
1467;SDS011;727;48.892;9.544;2022-09-13T03:51:48;6.60;;;5.90;;
1467;SDS011;727;48.892;9.544;2022-09-13T03:54:17;5.43;;;4.93;;
1467;SDS011;727;48.892;9.544;2022-09-13T03:59:38;5.77;;;5.23;;
1467;SDS011;727;48.892;9.544;2022-09-13T04:02:06;6.33;;;5.77;;
1467;SDS011;727;48.892;9.544;2022-09-13T04:04:37;6.27;;;5.33;;
1467;SDS011;727;48.892;9.544;2022-09-13T04:07:05;5.77;;;5.17;;
1467;SDS011;727;48.892;9.544;2022-09-13T04:09:32;5.33;;;4.90;;
1467;SDS011;727;48.892;9.544;2022-09-13T04:11:59;5.37;;;4.97;;
1467;SDS011;727;48.892;9.544;2022-09-13T04:14:26;6.00;;;5.10;;
1467;SDS011;727;48.892;9.544;2022-09-13T04:16:52;4.70;;;4.40;;
1467;SDS011;727;48.892;9.544;2022-09-13T04:19:21;5.43;;;4.85;;
1467;SDS011;727;48.892;9.544;2022-09-13T04:21:50;5.50;;;5.00;;
1467;SDS011;727;48.892;9.544;2022-09-13T04:24:18;5.20;;;4.80;;
1467;SDS011;727;48.892;9.544;2022-09-13T04:26:47;5.73;;;5.20;;
1467;SDS011;727;48.892;9.544;2022-09-13T04:29:15;6.20;;;4.80;;
1467;SDS011;727;48.892;9.544;2022-09-13T04:31:42;7.47;;;5.57;;
1467;SDS011;727;48.892;9.544;2022-09-13T04:34:09;7.93;;;5.07;;
1467;SDS011;727;48.892;9.544;2022-09-13T04:36:35;5.37;;;4.43;;
1467;SDS011;727;48.892;9.544;2022-09-13T04:39:04;5.07;;;4.67;;
1467;SDS011;727;48.892;9.544;2022-09-13T04:41:30;6.47;;;5.63;;
1467;SDS011;727;48.892;9.544;2022-09-13T04:43:58;5.07;;;4.67;;
1467;SDS011;727;48.892;9.544;2022-09-13T04:46:25;7.13;;;5.00;;
1467;SDS011;727;48.892;9.544;2022-09-13T04:48:52;5.50;;;5.00;;
1467;SDS011;727;48.892;9.544;2022-09-13T04:51:19;4.77;;;4.37;;
1467;SDS011;727;48.892;9.544;2022-09-13T04:53:50;6.30;;;5.00;;
1467;SDS011;727;48.892;9.544;2022-09-13T04:56:19;5.57;;;4.40;;
1467;SDS011;727;48.892;9.544;2022-09-13T04:58:47;4.97;;;4.23;;
1467;SDS011;727;48.892;9.544;2022-09-13T05:01:13;4.93;;;4.53;;
1467;SDS011;727;48.892;9.544;2022-09-13T05:03:41;5.20;;;4.70;;
1467;SDS011;727;48.892;9.544;2022-09-13T05:06:09;5.27;;;4.80;;
1467;SDS011;727;48.892;9.544;2022-09-13T05:08:38;6.53;;;4.90;;
1467;SDS011;727;48.892;9.544;2022-09-13T05:11:05;5.93;;;5.07;;
1467;SDS011;727;48.892;9.544;2022-09-13T05:13:34;5.00;;;4.50;;
1467;SDS011;727;48.892;9.544;2022-09-13T05:16:02;6.53;;;5.93;;
1467;SDS011;727;48.892;9.544;2022-09-13T05:18:30;4.97;;;4.50;;
1467;SDS011;727;48.892;9.544;2022-09-13T05:20:58;5.03;;;4.63;;
1467;SDS011;727;48.892;9.544;2022-09-13T05:23:27;8.20;;;5.20;;
1467;SDS011;727;48.892;9.544;2022-09-13T05:25:54;5.80;;;5.30;;
1467;SDS011;727;48.892;9.544;2022-09-13T05:28:22;5.17;;;4.67;;
1467;SDS011;727;48.892;9.544;2022-09-13T05:30:54;5.70;;;4.37;;
1467;SDS011;727;48.892;9.544;2022-09-13T05:33:21;4.50;;;4.10;;
1467;SDS011;727;48.892;9.544;2022-09-13T05:35:49;5.53;;;4.90;;
1467;SDS011;727;48.892;9.544;2022-09-13T05:38:16;4.93;;;4.40;;
1467;SDS011;727;48.892;9.544;2022-09-13T05:40:42;8.20;;;4.60;;
1467;SDS011;727;48.892;9.544;2022-09-13T05:43:09;7.50;;;4.90;;
1467;SDS011;727;48.892;9.544;2022-09-13T05:45:36;5.20;;;4.80;;
1467;SDS011;727;48.892;9.544;2022-09-13T05:48:04;5.10;;;4.70;;
1467;SDS011;727;48.892;9.544;2022-09-13T05:50:31;4.67;;;4.27;;
1467;SDS011;727;48.892;9.544;2022-09-13T05:53:02;4.57;;;4.10;;
1467;SDS011;727;48.892;9.544;2022-09-13T05:55:28;6.67;;;6.00;;
1467;SDS011;727;48.892;9.544;2022-09-13T05:57:55;4.30;;;4.00;;
1467;SDS011;727;48.892;9.544;2022-09-13T06:00:22;5.70;;;4.03;;
1467;SDS011;727;48.892;9.544;2022-09-13T06:02:49;4.70;;;4.00;;
1467;SDS011;727;48.892;9.544;2022-09-13T06:05:17;4.67;;;4.27;;
1467;SDS011;727;48.892;9.544;2022-09-13T06:07:44;5.30;;;4.80;;
1467;SDS011;727;48.892;9.544;2022-09-13T06:10:11;7.10;;;4.30;;
1467;SDS011;727;48.892;9.544;2022-09-13T06:12:38;8.67;;;4.53;;
1467;SDS011;727;48.892;9.544;2022-09-13T06:15:05;7.00;;;4.37;;
1467;SDS011;727;48.892;9.544;2022-09-13T06:17:33;5.17;;;4.67;;
1467;SDS011;727;48.892;9.544;2022-09-13T06:20:00;4.17;;;3.77;;
1467;SDS011;727;48.892;9.544;2022-09-13T06:22:28;4.60;;;4.20;;
1467;SDS011;727;48.892;9.544;2022-09-13T06:24:57;4.90;;;4.50;;
1467;SDS011;727;48.892;9.544;2022-09-13T06:27:24;4.53;;;4.13;;
1467;SDS011;727;48.892;9.544;2022-09-13T06:29:50;6.23;;;3.87;;
1467;SDS011;727;48.892;9.544;2022-09-13T06:32:19;3.80;;;3.60;;
1467;SDS011;727;48.892;9.544;2022-09-13T06:34:46;4.30;;;3.90;;
1467;SDS011;727;48.892;9.544;2022-09-13T06:37:12;3.50;;;3.20;;
1467;SDS011;727;48.892;9.544;2022-09-13T06:39:40;6.73;;;3.77;;
1467;SDS011;727;48.892;9.544;2022-09-13T06:42:07;5.00;;;4.50;;
1467;SDS011;727;48.892;9.544;2022-09-13T06:44:34;4.47;;;4.00;;
1467;SDS011;727;48.892;9.544;2022-09-13T06:47:00;5.43;;;5.00;;
1467;SDS011;727;48.892;9.544;2022-09-13T06:49:27;5.00;;;4.50;;
1467;SDS011;727;48.892;9.544;2022-09-13T06:51:55;4.40;;;3.97;;
1467;SDS011;727;48.892;9.544;2022-09-13T06:54:22;4.70;;;4.10;;
1467;SDS011;727;48.892;9.544;2022-09-13T06:56:50;8.60;;;5.40;;
1467;SDS011;727;48.892;9.544;2022-09-13T06:59:16;4.70;;;4.30;;
1467;SDS011;727;48.892;9.544;2022-09-13T07:01:43;5.00;;;4.70;;
1467;SDS011;727;48.892;9.544;2022-09-13T07:04:11;4.90;;;4.50;;
1467;SDS011;727;48.892;9.544;2022-09-13T07:06:39;4.40;;;3.77;;
1467;SDS011;727;48.892;9.544;2022-09-13T07:09:08;5.80;;;3.73;;
1467;SDS011;727;48.892;9.544;2022-09-13T07:11:37;4.33;;;4.03;;
1467;SDS011;727;48.892;9.544;2022-09-13T07:14:06;3.63;;;3.40;;
1467;SDS011;727;48.892;9.544;2022-09-13T07:16:36;4.20;;;3.90;;
1467;SDS011;727;48.892;9.544;2022-09-13T07:19:05;4.63;;;4.23;;
1467;SDS011;727;48.892;9.544;2022-09-13T07:21:34;4.60;;;4.20;;
1467;SDS011;727;48.892;9.544;2022-09-13T07:24:01;3.40;;;3.10;;
1467;SDS011;727;48.892;9.544;2022-09-13T07:26:28;4.43;;;4.13;;
1467;SDS011;727;48.892;9.544;2022-09-13T07:28:56;4.90;;;3.60;;
1467;SDS011;727;48.892;9.544;2022-09-13T07:31:27;4.60;;;4.20;;
1467;SDS011;727;48.892;9.544;2022-09-13T07:33:55;3.90;;;3.60;;
1467;SDS011;727;48.892;9.544;2022-09-13T07:36:24;4.43;;;4.00;;
1467;SDS011;727;48.892;9.544;2022-09-13T07:38:52;3.83;;;3.60;;
1467;SDS011;727;48.892;9.544;2022-09-13T07:41:19;4.77;;;3.47;;
1467;SDS011;727;48.892;9.544;2022-09-13T07:43:46;3.93;;;3.50;;
1467;SDS011;727;48.892;9.544;2022-09-13T07:46:15;6.77;;;4.07;;
1467;SDS011;727;48.892;9.544;2022-09-13T07:48:44;5.33;;;4.00;;
1467;SDS011;727;48.892;9.544;2022-09-13T07:51:12;4.37;;;3.97;;
1467;SDS011;727;48.892;9.544;2022-09-13T07:53:41;3.60;;;3.30;;
1467;SDS011;727;48.892;9.544;2022-09-13T07:56:10;6.30;;;4.40;;
1467;SDS011;727;48.892;9.544;2022-09-13T07:58:38;10.27;;;4.33;;
1467;SDS011;727;48.892;9.544;2022-09-13T08:01:07;3.47;;;3.27;;
1467;SDS011;727;48.892;9.544;2022-09-13T08:03:36;5.70;;;3.73;;
1467;SDS011;727;48.892;9.544;2022-09-13T08:06:05;4.20;;;3.80;;
1467;SDS011;727;48.892;9.544;2022-09-13T08:08:32;4.47;;;4.03;;
1467;SDS011;727;48.892;9.544;2022-09-13T08:11:00;4.10;;;3.80;;
1467;SDS011;727;48.892;9.544;2022-09-13T08:13:28;4.60;;;3.80;;
1467;SDS011;727;48.892;9.544;2022-09-13T08:15:59;4.80;;;3.60;;
1467;SDS011;727;48.892;9.544;2022-09-13T08:18:27;5.20;;;4.70;;
1467;SDS011;727;48.892;9.544;2022-09-13T08:20:54;4.23;;;3.83;;
1467;SDS011;727;48.892;9.544;2022-09-13T08:23:23;3.80;;;3.50;;
1467;SDS011;727;48.892;9.544;2022-09-13T08:25:51;3.50;;;3.20;;
1467;SDS011;727;48.892;9.544;2022-09-13T08:28:19;3.17;;;2.87;;
1467;SDS011;727;48.892;9.544;2022-09-13T08:30:47;2.93;;;2.73;;
1467;SDS011;727;48.892;9.544;2022-09-13T08:33:14;7.53;;;3.40;;
1467;SDS011;727;48.892;9.544;2022-09-13T08:35:49;3.70;;;3.00;;
1467;SDS011;727;48.892;9.544;2022-09-13T08:38:19;2.90;;;2.67;;
1467;SDS011;727;48.892;9.544;2022-09-13T08:40:48;4.27;;;3.60;;
1467;SDS011;727;48.892;9.544;2022-09-13T08:43:28;3.83;;;3.10;;
1467;SDS011;727;48.892;9.544;2022-09-13T08:46:07;4.50;;;3.60;;
1467;SDS011;727;48.892;9.544;2022-09-13T08:48:39;3.70;;;3.03;;
1467;SDS011;727;48.892;9.544;2022-09-13T08:51:16;3.03;;;2.83;;
1467;SDS011;727;48.892;9.544;2022-09-13T08:53:52;3.00;;;2.80;;
1467;SDS011;727;48.892;9.544;2022-09-13T08:56:21;3.23;;;2.70;;
1467;SDS011;727;48.892;9.544;2022-09-13T08:58:54;4.13;;;2.70;;
1467;SDS011;727;48.892;9.544;2022-09-13T09:01:37;4.93;;;3.00;;
1467;SDS011;727;48.892;9.544;2022-09-13T09:04:20;2.30;;;2.20;;
1467;SDS011;727;48.892;9.544;2022-09-13T09:07:01;5.50;;;2.77;;
1467;SDS011;727;48.892;9.544;2022-09-13T09:09:30;2.40;;;2.20;;
1467;SDS011;727;48.892;9.544;2022-09-13T09:12:04;2.53;;;2.20;;
1467;SDS011;727;48.892;9.544;2022-09-13T09:14:40;2.40;;;2.20;;
1467;SDS011;727;48.892;9.544;2022-09-13T09:17:11;2.07;;;1.97;;
1467;SDS011;727;48.892;9.544;2022-09-13T09:19:44;3.33;;;2.53;;
1467;SDS011;727;48.892;9.544;2022-09-13T09:22:15;2.17;;;2.00;;
1467;SDS011;727;48.892;9.544;2022-09-13T09:24:44;3.93;;;2.70;;
1467;SDS011;727;48.892;9.544;2022-09-13T09:27:16;3.07;;;2.87;;
1467;SDS011;727;48.892;9.544;2022-09-13T09:29:44;3.30;;;2.77;;
1467;SDS011;727;48.892;9.544;2022-09-13T09:32:16;4.33;;;3.20;;
1467;SDS011;727;48.892;9.544;2022-09-13T09:34:54;2.87;;;2.67;;
1467;SDS011;727;48.892;9.544;2022-09-13T09:37:33;3.57;;;2.50;;
1467;SDS011;727;48.892;9.544;2022-09-13T09:40:02;16.67;;;2.73;;
1467;SDS011;727;48.892;9.544;2022-09-13T09:42:37;2.70;;;2.23;;
1467;SDS011;727;48.892;9.544;2022-09-13T09:45:17;3.80;;;3.20;;
1467;SDS011;727;48.892;9.544;2022-09-13T09:47:50;3.40;;;2.53;;
1467;SDS011;727;48.892;9.544;2022-09-13T09:50:19;2.57;;;2.13;;
1467;SDS011;727;48.892;9.544;2022-09-13T09:52:49;1.87;;;1.77;;
1467;SDS011;727;48.892;9.544;2022-09-13T09:55:24;2.83;;;2.63;;
1467;SDS011;727;48.892;9.544;2022-09-13T09:57:56;2.33;;;1.93;;
1467;SDS011;727;48.892;9.544;2022-09-13T10:00:25;2.90;;;2.20;;
1467;SDS011;727;48.892;9.544;2022-09-13T10:02:55;2.83;;;2.20;;
1467;SDS011;727;48.892;9.544;2022-09-13T10:05:25;2.70;;;2.10;;
1467;SDS011;727;48.892;9.544;2022-09-13T10:07:55;2.50;;;2.30;;
1467;SDS011;727;48.892;9.544;2022-09-13T10:10:27;3.60;;;1.97;;
1467;SDS011;727;48.892;9.544;2022-09-13T10:13:02;1.90;;;1.63;;
1467;SDS011;727;48.892;9.544;2022-09-13T10:15:32;3.30;;;3.00;;
1467;SDS011;727;48.892;9.544;2022-09-13T10:18:00;3.40;;;2.53;;
1467;SDS011;727;48.892;9.544;2022-09-13T10:20:30;2.27;;;1.90;;
1467;SDS011;727;48.892;9.544;2022-09-13T10:23:11;2.33;;;1.90;;
1467;SDS011;727;48.892;9.544;2022-09-13T10:25:44;4.77;;;3.50;;
1467;SDS011;727;48.892;9.544;2022-09-13T10:28:22;2.33;;;2.13;;
1467;SDS011;727;48.892;9.544;2022-09-13T10:30:52;1.90;;;1.80;;
1467;SDS011;727;48.892;9.544;2022-09-13T10:33:23;2.20;;;2.00;;
1467;SDS011;727;48.892;9.544;2022-09-13T10:35:54;5.77;;;2.60;;
1467;SDS011;727;48.892;9.544;2022-09-13T10:38:23;2.00;;;1.80;;
1467;SDS011;727;48.892;9.544;2022-09-13T10:40:54;2.20;;;2.10;;
1467;SDS011;727;48.892;9.544;2022-09-13T10:43:23;4.20;;;2.13;;
1467;SDS011;727;48.892;9.544;2022-09-13T10:45:54;1.50;;;1.40;;
1467;SDS011;727;48.892;9.544;2022-09-13T10:48:22;1.60;;;1.50;;
1467;SDS011;727;48.892;9.544;2022-09-13T10:51:03;3.50;;;1.73;;
1467;SDS011;727;48.892;9.544;2022-09-13T10:53:33;2.10;;;1.80;;
1467;SDS011;727;48.892;9.544;2022-09-13T10:56:01;2.60;;;1.73;;
1467;SDS011;727;48.892;9.544;2022-09-13T10:58:30;1.40;;;1.30;;
1467;SDS011;727;48.892;9.544;2022-09-13T11:01:12;3.40;;;1.93;;
1467;SDS011;727;48.892;9.544;2022-09-13T11:03:58;1.90;;;1.80;;
1467;SDS011;727;48.892;9.544;2022-09-13T11:06:46;4.63;;;2.20;;
1467;SDS011;727;48.892;9.544;2022-09-13T11:09:20;1.43;;;1.33;;
1467;SDS011;727;48.892;9.544;2022-09-13T11:11:54;1.83;;;1.30;;
1467;SDS011;727;48.892;9.544;2022-09-13T11:14:34;1.83;;;1.40;;
1467;SDS011;727;48.892;9.544;2022-09-13T11:17:13;1.30;;;1.20;;
1467;SDS011;727;48.892;9.544;2022-09-13T11:19:54;2.73;;;1.90;;
1467;SDS011;727;48.892;9.544;2022-09-13T11:25:50;1.73;;;1.17;;
1467;SDS011;727;48.892;9.544;2022-09-13T11:28:40;1.30;;;1.20;;
1467;SDS011;727;48.892;9.544;2022-09-13T11:31:23;1.37;;;1.13;;
1467;SDS011;727;48.892;9.544;2022-09-13T11:34:06;2.07;;;1.93;;
1467;SDS011;727;48.892;9.544;2022-09-13T11:36:50;2.30;;;1.13;;
1467;SDS011;727;48.892;9.544;2022-09-13T11:39:30;1.20;;;1.10;;
1467;SDS011;727;48.892;9.544;2022-09-13T11:45:00;3.43;;;1.23;;
1467;SDS011;727;48.892;9.544;2022-09-13T11:47:54;3.43;;;1.20;;
1467;SDS011;727;48.892;9.544;2022-09-13T11:50:34;1.67;;;1.53;;
1467;SDS011;727;48.892;9.544;2022-09-13T11:53:12;2.93;;;1.20;;
1467;SDS011;727;48.892;9.544;2022-09-13T11:56:17;1.30;;;1.20;;
1467;SDS011;727;48.892;9.544;2022-09-13T11:58:50;1.97;;;1.00;;
1467;SDS011;727;48.892;9.544;2022-09-13T12:01:19;1.47;;;1.37;;
1467;SDS011;727;48.892;9.544;2022-09-13T12:03:53;2.67;;;1.03;;
1467;SDS011;727;48.892;9.544;2022-09-13T12:06:25;1.87;;;1.50;;
1467;SDS011;727;48.892;9.544;2022-09-13T12:08:55;2.20;;;1.13;;
1467;SDS011;727;48.892;9.544;2022-09-13T12:11:28;3.53;;;1.50;;
1467;SDS011;727;48.892;9.544;2022-09-13T12:14:00;1.43;;;1.13;;
1467;SDS011;727;48.892;9.544;2022-09-13T12:16:30;1.30;;;1.13;;
1467;SDS011;727;48.892;9.544;2022-09-13T12:19:01;1.10;;;1.00;;
1467;SDS011;727;48.892;9.544;2022-09-13T12:21:34;1.80;;;1.00;;
1467;SDS011;727;48.892;9.544;2022-09-13T12:24:04;1.07;;;1.00;;
1467;SDS011;727;48.892;9.544;2022-09-13T12:26:38;1.40;;;1.30;;
1467;SDS011;727;48.892;9.544;2022-09-13T12:29:11;1.53;;;1.30;;
1467;SDS011;727;48.892;9.544;2022-09-13T12:31:41;4.90;;;1.17;;
1467;SDS011;727;48.892;9.544;2022-09-13T12:34:10;2.17;;;1.10;;
1467;SDS011;727;48.892;9.544;2022-09-13T12:36:56;1.30;;;1.07;;
1467;SDS011;727;48.892;9.544;2022-09-13T12:43:03;1.53;;;1.37;;
1467;SDS011;727;48.892;9.544;2022-09-13T12:46:00;2.07;;;1.20;;
1467;SDS011;727;48.892;9.544;2022-09-13T12:48:44;1.20;;;1.10;;
1467;SDS011;727;48.892;9.544;2022-09-13T12:51:41;1.33;;;1.20;;
1467;SDS011;727;48.892;9.544;2022-09-13T12:54:29;1.73;;;1.23;;
1467;SDS011;727;48.892;9.544;2022-09-13T12:57:16;5.27;;;1.23;;
1467;SDS011;727;48.892;9.544;2022-09-13T12:59:55;1.83;;;1.40;;
1467;SDS011;727;48.892;9.544;2022-09-13T13:02:34;1.00;;;1.00;;
1467;SDS011;727;48.892;9.544;2022-09-13T13:05:05;4.10;;;2.07;;
1467;SDS011;727;48.892;9.544;2022-09-13T13:07:50;1.37;;;1.27;;
1467;SDS011;727;48.892;9.544;2022-09-13T13:10:23;1.50;;;1.40;;
1467;SDS011;727;48.892;9.544;2022-09-13T13:12:52;1.27;;;1.07;;
1467;SDS011;727;48.892;9.544;2022-09-13T13:18:25;1.40;;;1.30;;
1467;SDS011;727;48.892;9.544;2022-09-13T13:27:03;0.90;;;0.90;;
1467;SDS011;727;48.892;9.544;2022-09-13T13:33:04;2.63;;;1.30;;
1467;SDS011;727;48.892;9.544;2022-09-13T13:35:37;3.03;;;1.20;;
1467;SDS011;727;48.892;9.544;2022-09-13T13:38:13;2.50;;;1.07;;
1467;SDS011;727;48.892;9.544;2022-09-13T13:40:41;1.40;;;1.30;;
1467;SDS011;727;48.892;9.544;2022-09-13T13:43:24;1.23;;;1.13;;
1467;SDS011;727;48.892;9.544;2022-09-13T13:45:58;0.93;;;0.93;;
1467;SDS011;727;48.892;9.544;2022-09-13T13:48:51;3.50;;;1.03;;
1467;SDS011;727;48.892;9.544;2022-09-13T13:51:25;1.50;;;1.17;;
1467;SDS011;727;48.892;9.544;2022-09-13T13:53:57;3.00;;;1.10;;
1467;SDS011;727;48.892;9.544;2022-09-13T13:56:31;3.73;;;1.20;;
1467;SDS011;727;48.892;9.544;2022-09-13T13:59:10;2.13;;;1.23;;
1467;SDS011;727;48.892;9.544;2022-09-13T14:01:44;1.20;;;1.10;;
1467;SDS011;727;48.892;9.544;2022-09-13T14:10:29;1.33;;;1.23;;
1467;SDS011;727;48.892;9.544;2022-09-13T14:13:10;1.43;;;1.20;;
1467;SDS011;727;48.892;9.544;2022-09-13T14:15:48;1.40;;;1.30;;
1467;SDS011;727;48.892;9.544;2022-09-13T14:18:34;0.80;;;0.70;;
1467;SDS011;727;48.892;9.544;2022-09-13T14:21:26;0.97;;;0.97;;
1467;SDS011;727;48.892;9.544;2022-09-13T14:24:07;1.33;;;1.23;;
1467;SDS011;727;48.892;9.544;2022-09-13T14:26:40;2.93;;;1.47;;
1467;SDS011;727;48.892;9.544;2022-09-13T14:29:07;3.90;;;1.13;;
1467;SDS011;727;48.892;9.544;2022-09-13T14:31:35;1.10;;;1.00;;
1467;SDS011;727;48.892;9.544;2022-09-13T14:34:04;1.47;;;0.80;;
1467;SDS011;727;48.892;9.544;2022-09-13T14:36:30;1.70;;;1.00;;
1467;SDS011;727;48.892;9.544;2022-09-13T14:38:58;0.60;;;0.60;;
1467;SDS011;727;48.892;9.544;2022-09-13T14:41:29;1.37;;;0.80;;
1467;SDS011;727;48.892;9.544;2022-09-13T14:46:40;1.07;;;1.00;;
1467;SDS011;727;48.892;9.544;2022-09-13T14:49:13;0.90;;;0.70;;
1467;SDS011;727;48.892;9.544;2022-09-13T14:51:46;4.10;;;0.90;;
1467;SDS011;727;48.892;9.544;2022-09-13T14:54:17;1.20;;;1.10;;
1467;SDS011;727;48.892;9.544;2022-09-13T14:56:47;0.80;;;0.80;;
1467;SDS011;727;48.892;9.544;2022-09-13T14:59:17;1.77;;;0.90;;
1467;SDS011;727;48.892;9.544;2022-09-13T15:01:51;1.53;;;0.70;;
1467;SDS011;727;48.892;9.544;2022-09-13T15:04:19;0.70;;;0.70;;
1467;SDS011;727;48.892;9.544;2022-09-13T15:06:48;0.60;;;0.50;;
1467;SDS011;727;48.892;9.544;2022-09-13T15:09:32;3.80;;;0.80;;
1467;SDS011;727;48.892;9.544;2022-09-13T15:12:01;0.73;;;0.60;;
1467;SDS011;727;48.892;9.544;2022-09-13T15:14:29;0.67;;;0.67;;
1467;SDS011;727;48.892;9.544;2022-09-13T15:16:59;0.83;;;0.73;;
1467;SDS011;727;48.892;9.544;2022-09-13T15:19:37;0.60;;;0.60;;
1467;SDS011;727;48.892;9.544;2022-09-13T15:22:16;1.50;;;0.67;;
1467;SDS011;727;48.892;9.544;2022-09-13T15:24:46;1.37;;;0.50;;
1467;SDS011;727;48.892;9.544;2022-09-13T15:27:16;1.20;;;1.10;;
1467;SDS011;727;48.892;9.544;2022-09-13T15:29:53;0.97;;;0.83;;
1467;SDS011;727;48.892;9.544;2022-09-13T15:32:22;1.37;;;0.90;;
1467;SDS011;727;48.892;9.544;2022-09-13T15:34:56;2.20;;;0.80;;
1467;SDS011;727;48.892;9.544;2022-09-13T15:37:28;1.73;;;1.13;;
1467;SDS011;727;48.892;9.544;2022-09-13T15:40:01;1.67;;;0.87;;
1467;SDS011;727;48.892;9.544;2022-09-13T15:42:36;0.80;;;0.80;;
1467;SDS011;727;48.892;9.544;2022-09-13T15:45:03;4.20;;;0.80;;
1467;SDS011;727;48.892;9.544;2022-09-13T15:47:31;4.17;;;1.03;;
1467;SDS011;727;48.892;9.544;2022-09-13T15:49:59;0.90;;;0.70;;
1467;SDS011;727;48.892;9.544;2022-09-13T15:52:25;0.70;;;0.60;;
1467;SDS011;727;48.892;9.544;2022-09-13T15:54:52;2.20;;;1.10;;
1467;SDS011;727;48.892;9.544;2022-09-13T15:57:20;0.90;;;0.70;;
1467;SDS011;727;48.892;9.544;2022-09-13T15:59:48;1.47;;;0.97;;
1467;SDS011;727;48.892;9.544;2022-09-13T16:02:16;1.23;;;0.90;;
1467;SDS011;727;48.892;9.544;2022-09-13T16:04:45;1.10;;;1.00;;
1467;SDS011;727;48.892;9.544;2022-09-13T16:07:14;1.63;;;1.00;;
1467;SDS011;727;48.892;9.544;2022-09-13T16:09:41;1.60;;;0.73;;
1467;SDS011;727;48.892;9.544;2022-09-13T16:12:09;1.90;;;0.80;;
1467;SDS011;727;48.892;9.544;2022-09-13T16:14:36;1.03;;;0.83;;
1467;SDS011;727;48.892;9.544;2022-09-13T16:17:04;1.13;;;1.00;;
1467;SDS011;727;48.892;9.544;2022-09-13T16:19:32;1.37;;;1.00;;
1467;SDS011;727;48.892;9.544;2022-09-13T16:21:59;1.73;;;0.80;;
1467;SDS011;727;48.892;9.544;2022-09-13T16:24:28;1.80;;;1.20;;
1467;SDS011;727;48.892;9.544;2022-09-13T16:26:55;1.57;;;1.47;;
1467;SDS011;727;48.892;9.544;2022-09-13T16:29:24;7.23;;;1.80;;
1467;SDS011;727;48.892;9.544;2022-09-13T16:31:51;1.97;;;1.87;;
1467;SDS011;727;48.892;9.544;2022-09-13T16:34:18;2.47;;;1.70;;
1467;SDS011;727;48.892;9.544;2022-09-13T16:36:45;2.50;;;1.30;;
1467;SDS011;727;48.892;9.544;2022-09-13T16:39:12;2.60;;;1.00;;
1467;SDS011;727;48.892;9.544;2022-09-13T16:41:40;1.13;;;0.97;;